createdAt,value
2017-11-14T00:00:12.587Z,21.13
2017-11-14T00:00:26.054Z,21.04
2017-11-14T00:00:39.484Z,21.03
2017-11-14T00:00:52.963Z,21.04
2017-11-14T00:01:05.272Z,21.11
2017-11-14T00:01:18.208Z,21.09
2017-11-14T00:01:31.681Z,21.06
2017-11-14T00:01:44.103Z,21.06
2017-11-14T00:01:57.576Z,21.11
2017-11-14T00:02:09.997Z,21
2017-11-14T00:02:23.437Z,21.06
2017-11-14T00:02:36.853Z,21.13
2017-11-14T00:02:50.319Z,21.13
2017-11-14T00:03:03.215Z,21.15
2017-11-14T00:03:16.665Z,21.11
2017-11-14T00:03:30.184Z,21.16
2017-11-14T00:03:43.878Z,21.16
2017-11-14T00:03:57.357Z,21.15
2017-11-14T00:04:10.865Z,21.12
2017-11-14T00:04:23.769Z,21.15
2017-11-14T00:04:37.252Z,21.09
2017-11-14T00:04:50.768Z,21.03
2017-11-14T00:05:04.297Z,21.06
2017-11-14T00:05:17.454Z,21.03
2017-11-14T00:05:30.936Z,21.08
2017-11-14T00:05:44.508Z,21.01
2017-11-14T00:05:57.979Z,21.03
2017-11-14T00:06:10.860Z,21.06
2017-11-14T00:06:24.297Z,21
2017-11-14T00:06:37.814Z,21.11
2017-11-14T00:06:50.745Z,21
2017-11-14T00:07:04.292Z,21.01
2017-11-14T00:07:17.282Z,20.96
2017-11-14T00:07:30.787Z,21.01
2017-11-14T00:07:43.755Z,21.04
2017-11-14T00:07:56.705Z,21.04
2017-11-14T00:08:10.166Z,20.97
2017-11-14T00:08:23.637Z,21.03
2017-11-14T00:08:36.649Z,21.08
2017-11-14T00:08:49.603Z,21.03
2017-11-14T00:09:02.523Z,21.04
2017-11-14T00:09:15.466Z,21.08
2017-11-14T00:09:28.934Z,21
2017-11-14T00:09:42.425Z,21.09
2017-11-14T00:09:55.319Z,21.03
2017-11-14T00:10:07.711Z,21.08
2017-11-14T00:10:20.687Z,21.04
2017-11-14T00:10:34.170Z,21.09
2017-11-14T00:10:47.624Z,21.11
2017-11-14T00:11:01.071Z,21.13
2017-11-14T00:11:14.580Z,21.09
2017-11-14T00:11:27.508Z,21.06
2017-11-14T00:11:39.943Z,21.15
2017-11-14T00:11:53.390Z,21.13
2017-11-14T00:12:06.824Z,21.04
2017-11-14T00:12:20.268Z,21.08
2017-11-14T00:12:33.752Z,21.11
2017-11-14T00:12:47.189Z,21.03
2017-11-14T00:13:00.672Z,21.03
2017-11-14T00:13:14.183Z,21.06
2017-11-14T00:13:27.627Z,21.08
2017-11-14T00:13:40.041Z,21.08
2017-11-14T00:13:53.489Z,21.04
2017-11-14T00:14:05.888Z,21.03
2017-11-14T00:14:18.259Z,21.04
2017-11-14T00:14:31.650Z,20.97
2017-11-14T00:14:44.607Z,21.11
2017-11-14T00:14:58.126Z,21.03
2017-11-14T00:15:11.098Z,21.03
2017-11-14T00:15:24.521Z,21.08
2017-11-14T00:15:37.965Z,21.08
2017-11-14T00:15:51.410Z,21.06
2017-11-14T00:16:04.892Z,21.11
2017-11-14T00:16:18.339Z,21.09
2017-11-14T00:16:31.764Z,21.01
2017-11-14T00:16:45.213Z,21.08
2017-11-14T00:16:58.119Z,21.01
2017-11-14T00:17:11.016Z,21.04
2017-11-14T00:17:23.396Z,20.9
2017-11-14T00:17:36.323Z,20.93
2017-11-14T00:17:49.807Z,20.86
2017-11-14T00:18:03.209Z,20.85
2017-11-14T00:18:16.175Z,20.91
2017-11-14T00:18:29.666Z,20.93
2017-11-14T00:18:43.523Z,20.96
2017-11-14T00:18:57.072Z,20.94
2017-11-14T00:19:10.556Z,20.94
2017-11-14T00:19:24.057Z,20.93
2017-11-14T00:19:36.985Z,20.96
2017-11-14T00:19:49.927Z,20.86
2017-11-14T00:20:03.469Z,20.81
2017-11-14T00:20:16.398Z,20.98
2017-11-14T00:20:29.864Z,20.82
2017-11-14T00:20:42.735Z,20.79
2017-11-14T00:20:56.204Z,20.82
2017-11-14T00:21:09.102Z,20.82
2017-11-14T00:21:22.045Z,20.88
2017-11-14T00:21:35.493Z,20.82
2017-11-14T00:21:48.466Z,20.82
2017-11-14T00:22:01.938Z,20.85
2017-11-14T00:22:14.885Z,20.79
2017-11-14T00:22:28.391Z,20.72
2017-11-14T00:22:41.348Z,20.82
2017-11-14T00:22:54.803Z,20.82
2017-11-14T00:23:07.148Z,20.81
2017-11-14T00:23:20.613Z,20.81
2017-11-14T00:23:33.533Z,20.75
2017-11-14T00:23:47.046Z,20.76
2017-11-14T00:23:59.994Z,20.74
2017-11-14T00:24:13.495Z,20.78
2017-11-14T00:24:26.993Z,20.82
2017-11-14T00:24:40.450Z,20.83
2017-11-14T00:24:53.989Z,20.68
2017-11-14T00:25:06.430Z,20.64
2017-11-14T00:25:19.890Z,20.68
2017-11-14T00:25:32.247Z,20.78
2017-11-14T00:25:45.147Z,20.86
2017-11-14T00:25:58.653Z,20.71
2017-11-14T00:26:12.099Z,20.6
2017-11-14T00:26:25.565Z,20.76
2017-11-14T00:26:39.072Z,20.85
2017-11-14T00:26:52.602Z,20.79
2017-11-14T00:27:06.071Z,20.86
2017-11-14T00:27:18.468Z,20.79
2017-11-14T00:27:30.881Z,20.85
2017-11-14T00:27:44.388Z,20.78
2017-11-14T00:27:57.810Z,20.76
2017-11-14T00:28:11.361Z,20.81
2017-11-14T00:28:24.289Z,20.74
2017-11-14T00:28:37.727Z,20.82
2017-11-14T00:28:51.265Z,20.61
2017-11-14T00:29:04.198Z,20.63
2017-11-14T00:29:17.706Z,20.61
2017-11-14T00:29:31.187Z,20.76
2017-11-14T00:29:44.137Z,20.82
2017-11-14T00:29:57.635Z,20.83
2017-11-14T00:30:11.130Z,20.78
2017-11-14T00:30:25.636Z,20.78
2017-11-14T00:30:38.543Z,20.78
2017-11-14T00:30:51.519Z,20.85
2017-11-14T00:31:04.427Z,20.78
2017-11-14T00:31:17.945Z,20.74
2017-11-14T00:31:30.865Z,20.79
2017-11-14T00:31:43.294Z,20.78
2017-11-14T00:31:56.746Z,20.81
2017-11-14T00:32:10.235Z,20.86
2017-11-14T00:32:23.720Z,20.88
2017-11-14T00:32:36.862Z,20.81
2017-11-14T00:32:50.309Z,20.76
2017-11-14T00:33:03.807Z,20.78
2017-11-14T00:33:17.269Z,20.79
2017-11-14T00:33:30.149Z,20.79
2017-11-14T00:33:42.560Z,20.81
2017-11-14T00:33:56.409Z,20.83
2017-11-14T00:34:09.348Z,20.74
2017-11-14T00:34:22.800Z,20.81
2017-11-14T00:34:36.289Z,20.74
2017-11-14T00:34:49.203Z,20.74
2017-11-14T00:35:02.636Z,20.78
2017-11-14T00:35:15.513Z,20.75
2017-11-14T00:35:28.456Z,20.6
2017-11-14T00:35:41.345Z,20.74
2017-11-14T00:35:54.762Z,20.63
2017-11-14T00:36:07.732Z,20.63
2017-11-14T00:36:20.615Z,20.57
2017-11-14T00:36:33.568Z,20.58
2017-11-14T00:36:46.539Z,20.71
2017-11-14T00:37:00.060Z,20.67
2017-11-14T00:37:13.552Z,20.61
2017-11-14T00:37:27.047Z,20.57
2017-11-14T00:37:40.006Z,20.61
2017-11-14T00:37:53.446Z,20.75
2017-11-14T00:38:06.351Z,20.66
2017-11-14T00:38:19.281Z,20.67
2017-11-14T00:38:32.268Z,20.67
2017-11-14T00:38:45.735Z,20.64
2017-11-14T00:38:58.695Z,20.57
2017-11-14T00:39:12.197Z,20.61
2017-11-14T00:39:25.149Z,20.6
2017-11-14T00:39:38.551Z,20.46
2017-11-14T00:39:51.449Z,20.44
2017-11-14T00:40:04.440Z,20.6
2017-11-14T00:40:17.356Z,20.58
2017-11-14T00:40:30.763Z,20.56
2017-11-14T00:40:44.147Z,20.61
2017-11-14T00:40:57.064Z,20.63
2017-11-14T00:41:09.464Z,20.56
2017-11-14T00:41:23.209Z,20.63
2017-11-14T00:41:36.619Z,20.61
2017-11-14T00:41:49.578Z,20.66
2017-11-14T00:42:03.075Z,20.63
2017-11-14T00:42:16.004Z,20.58
2017-11-14T00:42:29.515Z,20.66
2017-11-14T00:42:42.443Z,20.61
2017-11-14T00:42:55.940Z,20.56
2017-11-14T00:43:09.441Z,20.54
2017-11-14T00:43:22.341Z,20.51
2017-11-14T00:43:35.834Z,20.74
2017-11-14T00:43:48.764Z,20.61
2017-11-14T00:44:02.271Z,20.61
2017-11-14T00:44:15.725Z,20.6
2017-11-14T00:44:28.652Z,20.57
2017-11-14T00:44:41.563Z,20.49
2017-11-14T00:44:54.989Z,20.54
2017-11-14T00:45:07.895Z,20.57
2017-11-14T00:45:21.364Z,20.57
2017-11-14T00:45:34.305Z,20.54
2017-11-14T00:45:47.230Z,20.6
2017-11-14T00:46:00.770Z,20.56
2017-11-14T00:46:12.528Z,20.66
2017-11-14T00:46:26.002Z,20.58
2017-11-14T00:46:39.481Z,20.63
2017-11-14T00:46:52.360Z,20.58
2017-11-14T00:47:05.313Z,20.6
2017-11-14T00:47:18.279Z,20.53
2017-11-14T00:47:31.248Z,20.53
2017-11-14T00:47:44.675Z,20.44
2017-11-14T00:47:57.072Z,20.56
2017-11-14T00:48:10.602Z,20.41
2017-11-14T00:48:24.045Z,20.49
2017-11-14T00:48:37.022Z,20.63
2017-11-14T00:48:50.706Z,20.56
2017-11-14T00:49:03.661Z,20.6
2017-11-14T00:49:17.130Z,20.58
2017-11-14T00:49:30.585Z,20.56
2017-11-14T00:49:42.981Z,20.57
2017-11-14T00:49:56.493Z,20.61
2017-11-14T00:50:09.453Z,20.44
2017-11-14T00:50:22.370Z,20.48
2017-11-14T00:50:35.801Z,20.49
2017-11-14T00:50:48.698Z,20.44
2017-11-14T00:51:02.178Z,20.4
2017-11-14T00:51:15.136Z,20.46
2017-11-14T00:51:28.698Z,20.4
2017-11-14T00:51:42.207Z,20.41
2017-11-14T00:51:55.142Z,20.41
2017-11-14T00:52:08.059Z,20.42
2017-11-14T00:52:21.032Z,20.4
2017-11-14T00:52:34.500Z,20.4
2017-11-14T00:52:47.384Z,20.42
2017-11-14T00:53:00.821Z,20.51
2017-11-14T00:53:14.260Z,20.48
2017-11-14T00:53:27.698Z,20.49
2017-11-14T00:53:40.626Z,20.48
2017-11-14T00:53:53.780Z,20.48
2017-11-14T00:54:07.248Z,20.46
2017-11-14T00:54:20.696Z,20.42
2017-11-14T00:54:34.187Z,20.38
2017-11-14T00:54:46.584Z,20.42
2017-11-14T00:55:00.093Z,20.42
2017-11-14T00:55:13.593Z,20.42
2017-11-14T00:55:27.082Z,20.42
2017-11-14T00:55:40.042Z,20.48
2017-11-14T00:55:52.928Z,20.44
2017-11-14T00:56:05.874Z,20.41
2017-11-14T00:56:19.411Z,20.35
2017-11-14T00:56:32.866Z,20.26
2017-11-14T00:56:45.241Z,20.16
2017-11-14T00:56:58.681Z,20.3
2017-11-14T00:57:12.183Z,20.27
2017-11-14T00:57:25.662Z,20.27
2017-11-14T00:57:39.156Z,20.27
2017-11-14T00:57:52.685Z,20.18
2017-11-14T00:58:06.158Z,20.27
2017-11-14T00:58:19.110Z,20.32
2017-11-14T00:58:32.551Z,20.34
2017-11-14T00:58:46.020Z,20.34
2017-11-14T00:58:59.578Z,20.32
2017-11-14T00:59:13.050Z,20.38
2017-11-14T00:59:25.980Z,20.42
2017-11-14T00:59:39.532Z,20.42
2017-11-14T00:59:52.494Z,20.41
2017-11-14T01:00:05.387Z,20.51
2017-11-14T01:00:18.859Z,20.46
2017-11-14T01:00:32.313Z,20.48
2017-11-14T01:00:45.766Z,20.46
2017-11-14T01:00:59.204Z,20.44
2017-11-14T01:01:12.641Z,20.38
2017-11-14T01:01:25.554Z,20.44
2017-11-14T01:01:38.480Z,20.46
2017-11-14T01:01:51.947Z,20.53
2017-11-14T01:02:04.860Z,20.49
2017-11-14T01:02:17.821Z,20.49
2017-11-14T01:02:31.320Z,20.49
2017-11-14T01:02:44.754Z,20.54
2017-11-14T01:02:57.671Z,20.49
2017-11-14T01:03:11.150Z,20.56
2017-11-14T01:03:24.067Z,20.49
2017-11-14T01:03:37.510Z,20.48
2017-11-14T01:03:49.909Z,20.38
2017-11-14T01:04:03.669Z,20.32
2017-11-14T01:04:16.046Z,20.34
2017-11-14T01:04:28.950Z,20.37
2017-11-14T01:04:42.388Z,20.35
2017-11-14T01:04:55.840Z,20.37
2017-11-14T01:05:09.315Z,20.37
2017-11-14T01:05:22.698Z,20.34
2017-11-14T01:05:35.635Z,20.38
2017-11-14T01:05:49.147Z,20.38
2017-11-14T01:06:01.018Z,20.37
2017-11-14T01:06:14.528Z,20.38
2017-11-14T01:06:28.025Z,20.38
2017-11-14T01:06:40.987Z,20.34
2017-11-14T01:06:53.927Z,20.35
2017-11-14T01:07:07.375Z,20.27
2017-11-14T01:07:20.297Z,20.25
2017-11-14T01:07:33.222Z,20.22
2017-11-14T01:07:46.166Z,20.27
2017-11-14T01:07:59.659Z,20.26
2017-11-14T01:08:12.560Z,20.2
2017-11-14T01:08:25.999Z,20.22
2017-11-14T01:08:39.432Z,20.23
2017-11-14T01:08:52.377Z,20.23
2017-11-14T01:09:05.307Z,20.18
2017-11-14T01:09:18.775Z,20.23
2017-11-14T01:09:32.240Z,20.16
2017-11-14T01:09:45.170Z,20.19
2017-11-14T01:09:58.082Z,20.23
2017-11-14T01:10:11.025Z,20.3
2017-11-14T01:10:24.507Z,20.25
2017-11-14T01:10:36.906Z,20.26
2017-11-14T01:10:50.330Z,20.25
2017-11-14T01:11:03.231Z,20.26
2017-11-14T01:11:16.730Z,20.25
2017-11-14T01:11:29.701Z,20.25
2017-11-14T01:11:43.177Z,20.26
2017-11-14T01:11:56.730Z,20.29
2017-11-14T01:12:10.251Z,20.29
2017-11-14T01:12:23.782Z,20.26
2017-11-14T01:12:37.242Z,20.35
2017-11-14T01:12:50.173Z,20.29
2017-11-14T01:13:03.142Z,20.37
2017-11-14T01:13:16.070Z,20.3
2017-11-14T01:13:29.488Z,20.26
2017-11-14T01:13:42.413Z,20.27
2017-11-14T01:13:55.357Z,20.18
2017-11-14T01:14:08.314Z,20.23
2017-11-14T01:14:21.801Z,20.25
2017-11-14T01:14:34.739Z,20.25
2017-11-14T01:14:47.177Z,20.23
2017-11-14T01:15:00.663Z,20.26
2017-11-14T01:15:13.589Z,20.29
2017-11-14T01:15:27.001Z,20.18
2017-11-14T01:15:39.943Z,20.12
2017-11-14T01:15:52.817Z,20.07
2017-11-14T01:16:05.715Z,20.12
2017-11-14T01:16:18.649Z,20.19
2017-11-14T01:16:32.136Z,20.11
2017-11-14T01:16:45.565Z,20.1
2017-11-14T01:16:59.033Z,20.15
2017-11-14T01:17:12.005Z,20.12
2017-11-14T01:17:25.375Z,20.18
2017-11-14T01:17:38.885Z,20.2
2017-11-14T01:17:52.337Z,20.23
2017-11-14T01:18:05.801Z,20.27
2017-11-14T01:18:19.221Z,20.27
2017-11-14T01:18:32.164Z,20.25
2017-11-14T01:18:44.501Z,20.18
2017-11-14T01:18:58.028Z,20.19
2017-11-14T01:19:11.154Z,20.19
2017-11-14T01:19:24.618Z,20.18
2017-11-14T01:19:37.508Z,20.18
2017-11-14T01:19:50.512Z,20.23
2017-11-14T01:20:04.044Z,20.29
2017-11-14T01:20:17.538Z,20.15
2017-11-14T01:20:30.993Z,20.2
2017-11-14T01:20:44.474Z,20.04
2017-11-14T01:20:57.937Z,20.2
2017-11-14T01:21:11.404Z,20.16
2017-11-14T01:21:24.860Z,20.12
2017-11-14T01:21:38.370Z,20.08
2017-11-14T01:21:51.276Z,19.98
2017-11-14T01:22:04.732Z,19.97
2017-11-14T01:22:19.615Z,20.02
2017-11-14T01:22:32.592Z,19.98
2017-11-14T01:22:45.524Z,19.97
2017-11-14T01:22:58.971Z,20.07
2017-11-14T01:23:11.926Z,19.97
2017-11-14T01:23:25.463Z,20.05
2017-11-14T01:23:38.347Z,20
2017-11-14T01:23:51.320Z,20.15
2017-11-14T01:24:04.873Z,20.1
2017-11-14T01:24:17.837Z,20.15
2017-11-14T01:24:31.348Z,20.15
2017-11-14T01:24:44.786Z,20.11
2017-11-14T01:24:58.223Z,20.19
2017-11-14T01:25:11.143Z,20.12
2017-11-14T01:25:24.618Z,20.15
2017-11-14T01:25:37.046Z,20.18
2017-11-14T01:25:50.519Z,20.15
2017-11-14T01:26:03.427Z,20.16
2017-11-14T01:26:16.376Z,20.18
2017-11-14T01:26:29.864Z,20.15
2017-11-14T01:26:42.788Z,20.2
2017-11-14T01:26:55.631Z,20.2
2017-11-14T01:27:08.588Z,20.15
2017-11-14T01:27:22.119Z,20.05
2017-11-14T01:27:35.558Z,20.12
2017-11-14T01:27:48.010Z,20.02
2017-11-14T01:28:01.481Z,19.98
2017-11-14T01:28:15.026Z,20
2017-11-14T01:28:27.973Z,20.12
2017-11-14T01:28:41.481Z,20.18
2017-11-14T01:28:54.372Z,20.05
2017-11-14T01:29:07.866Z,20.1
2017-11-14T01:29:20.721Z,20.18
2017-11-14T01:29:34.263Z,20.19
2017-11-14T01:29:47.231Z,20.1
2017-11-14T01:30:00.692Z,20.11
2017-11-14T01:30:14.190Z,20.05
2017-11-14T01:30:27.675Z,20.08
2017-11-14T01:30:40.040Z,20.08
2017-11-14T01:30:53.483Z,20.18
2017-11-14T01:31:06.384Z,20.11
2017-11-14T01:31:19.903Z,20.16
2017-11-14T01:31:33.387Z,20.05
2017-11-14T01:31:46.865Z,20.11
2017-11-14T01:32:00.354Z,20.1
2017-11-14T01:32:13.789Z,20.16
2017-11-14T01:32:26.774Z,20.12
2017-11-14T01:32:39.748Z,20.18
2017-11-14T01:32:53.198Z,20.16
2017-11-14T01:33:06.111Z,20.19
2017-11-14T01:33:19.027Z,20.04
2017-11-14T01:33:32.508Z,20.02
2017-11-14T01:33:45.421Z,20.11
2017-11-14T01:33:58.386Z,20.01
2017-11-14T01:34:10.820Z,20.07
2017-11-14T01:34:24.384Z,20.04
2017-11-14T01:34:37.876Z,20.08
2017-11-14T01:34:51.353Z,20.07
2017-11-14T01:35:04.790Z,20.01
2017-11-14T01:35:21.267Z,20.16
2017-11-14T01:35:34.672Z,20.08
2017-11-14T01:35:47.603Z,20.05
2017-11-14T01:36:00.002Z,20.11
2017-11-14T01:36:13.466Z,20.16
2017-11-14T01:36:26.425Z,20.19
2017-11-14T01:36:39.373Z,20.01
2017-11-14T01:36:52.771Z,20.08
2017-11-14T01:37:06.253Z,20.1
2017-11-14T01:37:19.758Z,20.18
2017-11-14T01:37:33.247Z,20.2
2017-11-14T01:37:46.730Z,20.15
2017-11-14T01:38:00.219Z,20.18
2017-11-14T01:38:13.767Z,20.25
2017-11-14T01:38:27.322Z,20.2
2017-11-14T01:38:40.813Z,20.15
2017-11-14T01:38:54.321Z,20.19
2017-11-14T01:39:07.784Z,20.04
2017-11-14T01:39:20.773Z,20.11
2017-11-14T01:39:33.715Z,20.02
2017-11-14T01:39:46.610Z,20.08
2017-11-14T01:39:59.535Z,20.1
2017-11-14T01:40:12.454Z,20.1
2017-11-14T01:40:25.925Z,20.08
2017-11-14T01:40:38.889Z,20.07
2017-11-14T01:40:52.327Z,20.11
2017-11-14T01:41:05.285Z,20.11
2017-11-14T01:41:18.755Z,20.08
2017-11-14T01:41:32.194Z,20.04
2017-11-14T01:41:45.126Z,20.11
2017-11-14T01:41:58.593Z,20.12
2017-11-14T01:42:12.127Z,20.08
2017-11-14T01:42:25.062Z,20.07
2017-11-14T01:42:37.967Z,20.1
2017-11-14T01:42:51.458Z,20.08
2017-11-14T01:43:04.959Z,20.05
2017-11-14T01:43:18.421Z,19.97
2017-11-14T01:43:31.329Z,20
2017-11-14T01:43:44.315Z,20.01
2017-11-14T01:43:57.226Z,20.05
2017-11-14T01:44:09.590Z,20.07
2017-11-14T01:44:22.964Z,20.08
2017-11-14T01:44:35.383Z,20.1
2017-11-14T01:44:47.769Z,20.1
2017-11-14T01:45:00.714Z,20.07
2017-11-14T01:45:14.177Z,19.93
2017-11-14T01:45:27.684Z,20
2017-11-14T01:45:40.066Z,20
2017-11-14T01:45:53.023Z,19.97
2017-11-14T01:46:05.980Z,19.97
2017-11-14T01:46:18.904Z,19.98
2017-11-14T01:46:32.411Z,19.86
2017-11-14T01:46:45.363Z,19.92
2017-11-14T01:46:58.832Z,19.97
2017-11-14T01:47:12.289Z,19.95
2017-11-14T01:47:25.747Z,19.95
2017-11-14T01:47:39.223Z,19.97
2017-11-14T01:47:52.715Z,19.93
2017-11-14T01:48:06.180Z,19.93
2017-11-14T01:48:19.630Z,19.97
2017-11-14T01:48:33.149Z,19.97
2017-11-14T01:48:46.611Z,19.98
2017-11-14T01:48:59.575Z,20
2017-11-14T01:49:13.053Z,19.93
2017-11-14T01:49:26.011Z,19.98
2017-11-14T01:49:38.923Z,20
2017-11-14T01:49:52.393Z,19.93
2017-11-14T01:50:05.913Z,19.98
2017-11-14T01:50:19.385Z,19.92
2017-11-14T01:50:32.826Z,19.98
2017-11-14T01:50:45.721Z,20.01
2017-11-14T01:50:59.174Z,19.98
2017-11-14T01:51:12.653Z,20
2017-11-14T01:51:26.131Z,19.95
2017-11-14T01:51:39.610Z,20
2017-11-14T01:51:53.081Z,19.98
2017-11-14T01:52:06.586Z,19.95
2017-11-14T01:52:19.460Z,19.98
2017-11-14T01:52:32.351Z,19.98
2017-11-14T01:52:45.253Z,20.02
2017-11-14T01:52:58.688Z,19.93
2017-11-14T01:53:12.135Z,20.01
2017-11-14T01:53:25.632Z,20.08
2017-11-14T01:53:39.150Z,20.07
2017-11-14T01:53:52.639Z,20.1
2017-11-14T01:54:05.005Z,20.04
2017-11-14T01:54:18.153Z,20.07
2017-11-14T01:54:31.039Z,19.97
2017-11-14T01:54:44.503Z,19.97
2017-11-14T01:54:57.925Z,20.11
2017-11-14T01:55:11.425Z,19.97
2017-11-14T01:55:24.924Z,20
2017-11-14T01:55:37.820Z,19.97
2017-11-14T01:55:50.730Z,19.98
2017-11-14T01:56:04.204Z,20.04
2017-11-14T01:56:17.172Z,20.07
2017-11-14T01:56:30.107Z,20.1
2017-11-14T01:56:43.579Z,19.97
2017-11-14T01:56:56.442Z,19.97
2017-11-14T01:57:09.958Z,19.98
2017-11-14T01:57:23.460Z,19.9
2017-11-14T01:57:36.425Z,19.97
2017-11-14T01:57:48.783Z,19.97
2017-11-14T01:58:02.264Z,20.1
2017-11-14T01:58:15.762Z,20.05
2017-11-14T01:58:28.676Z,20.08
2017-11-14T01:58:41.592Z,20.1
2017-11-14T01:58:53.931Z,20.08
2017-11-14T01:59:07.421Z,19.9
2017-11-14T01:59:20.979Z,20.02
2017-11-14T01:59:33.332Z,20.05
2017-11-14T01:59:45.677Z,20.11
2017-11-14T01:59:58.559Z,20.08
2017-11-14T02:00:12.073Z,20.07
2017-11-14T02:00:25.544Z,20.01
2017-11-14T02:00:38.950Z,20.07
2017-11-14T02:00:51.874Z,20.08
2017-11-14T02:01:05.317Z,20.02
2017-11-14T02:01:18.798Z,19.92
2017-11-14T02:01:32.345Z,19.95
2017-11-14T02:01:45.782Z,19.97
2017-11-14T02:01:59.266Z,19.95
2017-11-14T02:02:11.612Z,20.04
2017-11-14T02:02:25.089Z,20
2017-11-14T02:02:38.541Z,20
2017-11-14T02:02:50.891Z,20.04
2017-11-14T02:03:04.333Z,19.92
2017-11-14T02:03:17.825Z,19.95
2017-11-14T02:03:30.766Z,19.83
2017-11-14T02:03:44.194Z,19.86
2017-11-14T02:03:57.090Z,19.85
2017-11-14T02:04:10.575Z,19.85
2017-11-14T02:04:24.742Z,19.83
2017-11-14T02:04:38.185Z,19.95
2017-11-14T02:04:51.098Z,19.93
2017-11-14T02:05:04.592Z,19.86
2017-11-14T02:05:17.545Z,19.93
2017-11-14T02:05:30.977Z,19.92
2017-11-14T02:05:44.524Z,19.9
2017-11-14T02:05:57.361Z,20
2017-11-14T02:06:10.308Z,19.93
2017-11-14T02:06:23.741Z,19.95
2017-11-14T02:06:36.685Z,19.95
2017-11-14T02:06:50.140Z,20.01
2017-11-14T02:07:03.773Z,19.95
2017-11-14T02:07:16.700Z,19.98
2017-11-14T02:07:30.200Z,20
2017-11-14T02:07:43.678Z,19.98
2017-11-14T02:07:56.572Z,19.93
2017-11-14T02:08:08.951Z,19.98
2017-11-14T02:08:21.924Z,19.98
2017-11-14T02:08:35.389Z,19.97
2017-11-14T02:08:48.270Z,20.05
2017-11-14T02:09:01.236Z,19.97
2017-11-14T02:09:14.647Z,20.02
2017-11-14T02:09:28.127Z,19.93
2017-11-14T02:09:41.537Z,19.93
2017-11-14T02:09:54.964Z,19.93
2017-11-14T02:10:07.928Z,19.98
2017-11-14T02:10:21.382Z,19.95
2017-11-14T02:10:34.838Z,19.93
2017-11-14T02:10:48.335Z,19.93
2017-11-14T02:11:01.758Z,19.93
2017-11-14T02:11:15.194Z,19.86
2017-11-14T02:11:28.159Z,19.86
2017-11-14T02:11:40.529Z,19.87
2017-11-14T02:11:52.883Z,19.9
2017-11-14T02:12:06.370Z,19.85
2017-11-14T02:12:18.792Z,19.9
2017-11-14T02:12:32.360Z,19.9
2017-11-14T02:12:45.842Z,19.83
2017-11-14T02:12:58.762Z,19.86
2017-11-14T02:13:12.191Z,19.83
2017-11-14T02:13:25.145Z,19.86
2017-11-14T02:13:38.632Z,19.72
2017-11-14T02:13:52.107Z,19.72
2017-11-14T02:14:05.085Z,19.75
2017-11-14T02:14:18.576Z,19.82
2017-11-14T02:14:30.888Z,19.83
2017-11-14T02:14:44.371Z,19.74
2017-11-14T02:14:57.831Z,19.79
2017-11-14T02:15:10.231Z,19.7
2017-11-14T02:15:23.705Z,19.68
2017-11-14T02:15:37.203Z,19.75
2017-11-14T02:15:50.719Z,19.82
2017-11-14T02:16:04.234Z,19.74
2017-11-14T02:16:17.709Z,19.79
2017-11-14T02:16:30.674Z,19.78
2017-11-14T02:16:44.323Z,19.78
2017-11-14T02:16:57.234Z,19.82
2017-11-14T02:17:10.730Z,19.68
2017-11-14T02:17:24.200Z,19.71
2017-11-14T02:17:37.772Z,19.75
2017-11-14T02:17:51.320Z,19.72
2017-11-14T02:18:03.769Z,19.78
2017-11-14T02:18:16.788Z,19.75
2017-11-14T02:18:30.248Z,19.75
2017-11-14T02:18:43.724Z,19.78
2017-11-14T02:18:56.632Z,19.71
2017-11-14T02:19:09.525Z,19.72
2017-11-14T02:19:23.088Z,19.71
2017-11-14T02:19:36.200Z,19.7
2017-11-14T02:19:49.708Z,19.78
2017-11-14T02:20:03.208Z,19.79
2017-11-14T02:20:16.126Z,19.8
2017-11-14T02:20:29.573Z,19.82
2017-11-14T02:20:43.012Z,19.85
2017-11-14T02:20:56.507Z,19.74
2017-11-14T02:21:09.473Z,19.71
2017-11-14T02:21:22.950Z,19.74
2017-11-14T02:21:35.877Z,19.72
2017-11-14T02:21:48.790Z,19.71
2017-11-14T02:22:02.274Z,19.74
2017-11-14T02:22:15.161Z,19.65
2017-11-14T02:22:28.004Z,19.68
2017-11-14T02:22:41.455Z,19.7
2017-11-14T02:22:54.902Z,19.82
2017-11-14T02:23:07.262Z,19.7
2017-11-14T02:23:20.787Z,19.68
2017-11-14T02:23:33.654Z,19.71
2017-11-14T02:23:46.582Z,19.78
2017-11-14T02:23:59.980Z,19.72
2017-11-14T02:24:12.953Z,19.74
2017-11-14T02:24:26.391Z,19.75
2017-11-14T02:24:39.935Z,19.82
2017-11-14T02:24:52.856Z,19.8
2017-11-14T02:25:06.404Z,19.75
2017-11-14T02:25:19.357Z,19.87
2017-11-14T02:25:32.814Z,19.86
2017-11-14T02:25:45.766Z,19.82
2017-11-14T02:25:59.245Z,19.82
2017-11-14T02:26:12.133Z,19.86
2017-11-14T02:26:25.584Z,19.78
2017-11-14T02:26:38.493Z,19.82
2017-11-14T02:26:51.951Z,19.86
2017-11-14T02:27:05.359Z,19.9
2017-11-14T02:27:18.312Z,19.82
2017-11-14T02:27:31.773Z,19.9
2017-11-14T02:27:45.192Z,19.85
2017-11-14T02:27:58.632Z,19.89
2017-11-14T02:28:11.560Z,19.8
2017-11-14T02:28:23.894Z,19.83
2017-11-14T02:28:37.372Z,19.87
2017-11-14T02:28:50.826Z,19.9
2017-11-14T02:29:04.364Z,19.8
2017-11-14T02:29:17.823Z,19.93
2017-11-14T02:29:31.379Z,19.87
2017-11-14T02:29:44.994Z,19.78
2017-11-14T02:29:58.459Z,19.98
2017-11-14T02:30:11.391Z,19.79
2017-11-14T02:30:24.944Z,19.74
2017-11-14T02:30:38.433Z,19.74
2017-11-14T02:30:51.854Z,19.82
2017-11-14T02:31:05.279Z,19.85
2017-11-14T02:31:17.699Z,19.75
2017-11-14T02:31:31.170Z,19.75
2017-11-14T02:31:44.668Z,19.75
2017-11-14T02:31:58.195Z,19.75
2017-11-14T02:32:11.677Z,19.78
2017-11-14T02:32:24.642Z,19.65
2017-11-14T02:32:38.117Z,19.64
2017-11-14T02:32:51.530Z,19.68
2017-11-14T02:33:04.993Z,19.67
2017-11-14T02:33:18.456Z,19.61
2017-11-14T02:33:31.984Z,19.65
2017-11-14T02:33:44.867Z,19.65
2017-11-14T02:33:57.705Z,19.61
2017-11-14T02:34:11.233Z,19.7
2017-11-14T02:34:24.077Z,19.64
2017-11-14T02:34:37.742Z,19.7
2017-11-14T02:34:50.652Z,19.68
2017-11-14T02:35:03.510Z,19.68
2017-11-14T02:35:16.919Z,19.64
2017-11-14T02:35:29.866Z,19.74
2017-11-14T02:35:42.786Z,19.63
2017-11-14T02:35:56.270Z,19.75
2017-11-14T02:36:09.736Z,19.71
2017-11-14T02:36:23.211Z,19.68
2017-11-14T02:36:36.669Z,19.67
2017-11-14T02:36:50.100Z,19.67
2017-11-14T02:37:03.611Z,19.7
2017-11-14T02:37:17.069Z,19.71
2017-11-14T02:37:30.023Z,19.65
2017-11-14T02:37:43.601Z,19.67
2017-11-14T02:37:57.094Z,19.7
2017-11-14T02:38:10.612Z,19.72
2017-11-14T02:38:24.150Z,19.74
2017-11-14T02:38:37.570Z,19.71
2017-11-14T02:38:51.112Z,19.75
2017-11-14T02:39:04.554Z,19.71
2017-11-14T02:39:17.460Z,19.64
2017-11-14T02:39:30.997Z,19.7
2017-11-14T02:39:44.464Z,19.67
2017-11-14T02:39:57.929Z,19.65
2017-11-14T02:40:10.844Z,19.63
2017-11-14T02:40:24.390Z,19.72
2017-11-14T02:40:37.831Z,19.72
2017-11-14T02:40:51.320Z,19.64
2017-11-14T02:41:04.740Z,19.57
2017-11-14T02:41:18.237Z,19.67
2017-11-14T02:41:31.744Z,19.57
2017-11-14T02:41:45.264Z,19.53
2017-11-14T02:41:58.207Z,19.49
2017-11-14T02:42:11.157Z,19.46
2017-11-14T02:42:24.582Z,19.55
2017-11-14T02:42:38.074Z,19.67
2017-11-14T02:42:51.574Z,19.7
2017-11-14T02:43:05.087Z,19.65
2017-11-14T02:43:18.497Z,19.65
2017-11-14T02:43:32.003Z,19.7
2017-11-14T02:43:44.984Z,19.63
2017-11-14T02:43:58.552Z,19.6
2017-11-14T02:44:11.507Z,19.67
2017-11-14T02:44:24.951Z,19.68
2017-11-14T02:44:38.465Z,19.72
2017-11-14T02:44:53.390Z,19.71
2017-11-14T02:45:06.877Z,19.74
2017-11-14T02:45:20.383Z,19.68
2017-11-14T02:45:33.883Z,19.71
2017-11-14T02:45:46.801Z,19.71
2017-11-14T02:46:00.318Z,19.71
2017-11-14T02:46:13.283Z,19.72
2017-11-14T02:46:26.725Z,19.79
2017-11-14T02:46:39.670Z,19.79
2017-11-14T02:46:53.150Z,19.71
2017-11-14T02:47:06.653Z,19.75
2017-11-14T02:47:19.582Z,19.78
2017-11-14T02:47:32.528Z,19.78
2017-11-14T02:47:45.487Z,19.78
2017-11-14T02:47:58.963Z,19.78
2017-11-14T02:48:12.436Z,19.75
2017-11-14T02:48:25.958Z,19.75
2017-11-14T02:48:38.949Z,19.74
2017-11-14T02:48:52.388Z,19.74
2017-11-14T02:49:05.360Z,19.74
2017-11-14T02:49:18.837Z,19.7
2017-11-14T02:49:32.358Z,19.79
2017-11-14T02:49:45.979Z,19.74
2017-11-14T02:49:58.898Z,19.79
2017-11-14T02:50:11.302Z,19.74
2017-11-14T02:50:24.784Z,19.82
2017-11-14T02:50:38.220Z,19.74
2017-11-14T02:50:51.661Z,19.78
2017-11-14T02:51:04.596Z,19.79
2017-11-14T02:51:18.155Z,19.89